Evangeline, LA (70537)

4:59 AM CST on February 08, 2016 (GMT -0600)
Jennings | | Change Station
CLOSE
Current Station
Airport
Location: Jennings,
Elevation: 23 ft
Nearby Weather Stations
Active Advisory: Wind Advisory

Elev 23 ft 30.24 °N, 92.67 °W | Updated 23 minutes ago

Clear
Clear
43 °F
Feels Like 38 °F
N
8
Wind Variable Wind from West

Today
High -- | Low -- °F
--% Chance of Precip.
Yesterday
High -- | Low -- °F
Precip. -- in
Pressure 30.14 in
Visibility 10.0 miles
Clouds Clear
Windchill 38 °F
Dew Point 43 °F
Humidity 100%
Rainfall 0.00 in
Snow Depth Not available.
6:56 AM 5:52 PM
Waning Crescent, 0% visible
METAR K3R7 081036Z AUTO 28007KT 10SM CLR 06/06 A3014 RMK AO2
Pressure 30.14 in
Visibility 10.0 miles
Clouds Clear
Windchill 38 °F
Dew Point 43 °F
Humidity 100%
Rainfall 0.00 in
Snow Depth Not available.
6:56 AM 5:52 PM
Waning Crescent, 0% visible
METAR K3R7 081036Z AUTO 28007KT 10SM CLR 06/06 A3014 RMK AO2

10-Day Weather Forecast

Almanac

Astronomy

Feb. 08, 2016 Rise Set
Actual Time
Civil Twilight
Nautical Twilight
Astronomical Twilight
Moon
Length of Visible Light
Length of Day
Tomorrow will be .
, % of the Moon is Illuminated

Today's Extremes

State Highs State Lows

Community

WunderPhotos

Upload Photos

1,891,420 photos uploaded!

WunderBlog® & News

Nearby

Air Quality

  Air Quality AQ Index Pollutant
Not available.

Snow Depth

Station Depth Elevation

Earthquake Activity

City Distance Mag. Time & Date
Minimum magnitude displayed is 2.5.

Coastal Water Temperatures

Place Temperature

Stations

Nearby Weather Stations

Station Location Temp. Windchill Dew Point Humidity Wind Precip. Elev Updated Type
                   

Watches & Warnings

Wind Advisory
Issued: 3:51 AM CST Feb. 8, 2016 – National Weather Service

... Wind Advisory in effect from 10 am this morning to 6 PM CST
this evening...

The National Weather Service in Lake Charles has issued a Wind
Advisory... which is in effect from 10 am this morning to 6 PM CST
this evening.

* Timing... late morning through sunset.

* Winds... sustained 20 to 25 mph... with gusts above 25 to 30
mph.

* Impacts... vehicles and high profile vehicles should use
caution as sudden gusts can cause loss of control. Loose lawn
furniture or trash cans may be blow around.

Precautionary/preparedness actions...

A Wind Advisory means that winds of 20 mph are expected. Winds
this strong can make driving difficult... especially for high
profile vehicles. Use extra caution.